Spencer, SD

5:08 AM CST on February 01, 2015 (GMT -0600)
Rural Canova, SD | Change Station
CLOSE
Current Station
Personal Weather Station
Location: Canova, SD
Elevation: 1542 ft
Nearby Weather Stations
Active Advisory: Winter Storm Warning

Elev 1542 ft 43.81 °N, 97.48 °W | Updated 7 seconds ago

Snow
Snow
8.7 °F
Feels Like -8 °F
N
15.0
Wind Variable Wind from North
Gusts 20.7 mph

Today
High -- | Low -- °F
--% Chance of Precip.
Yesterday
High -- | Low -- °F
Precip. -- in
7:47 AM 5:41 PM
Waxing Gibbous, 94% visible
Pressure 30.30 in
Visibility 1.0 miles
Clouds
Windchill -8 °F
Dew Point 6 °F
Humidity 90%
Rainfall 0.00 in
Snow Depth Not available.
UV Not available.
Pollen .10 out of 12
Air Quality Not available.
Flu Activity Not available.
METAR KMHE 011053Z AUTO 35019KT 1SM -SN BR VV013 M14/M16 A3022 RMK AO2 PK WND 36029/1006 SLP258 P0000 T11441161

More Conditions Fewer Conditions

Pressure 30.30 in
Visibility 1.0 miles
Clouds
Windchill -8 °F
Dew Point 6 °F
Humidity 90%
Rainfall 0.00 in
Snow Depth Not available.
UV Not available.
Pollen .10 out of 12
Air Quality Not available.
Flu Activity Not available.
METAR KMHE 011053Z AUTO 35019KT 1SM -SN BR VV013 M14/M16 A3022 RMK AO2 PK WND 36029/1006 SLP258 P0000 T11441161

More Conditions Fewer Conditions

10-Day Weather Forecast

Almanac

Astronomy

Feb. 01, 2015 Rise Set
Actual Time
Civil Twilight
Nautical Twilight
Astronomical Twilight
Moon
Length of Visible Light
Length of Day
Tomorrow will be .
, % of the Moon is Illuminated

Today's Extremes

State Highs State Lows

Community

WunderPhotos

Upload Photos

1,792,345 photos uploaded!

WunderBlogs® & News

Nearby

Air Quality

  Air Quality AQ Index Pollutant
Not available.

Snow Depth

Station Depth Elevation

Earthquake Activity

City Distance Mag. Time & Date
Minimum magnitude displayed is 2.5.

Coastal Water Temperatures

Place Temperature

Nearby Weather Stations